sensor_id;sensor_type;location;lat;lon;timestamp;P1;durP1;ratioP1;P2;durP2;ratioP2
56399;SDS011;42298;53.638;9.876;2022-07-29T00:02:21;3.85;;;1.70;;
56399;SDS011;42298;53.638;9.876;2022-07-29T00:04:46;4.93;;;2.00;;
56399;SDS011;42298;53.638;9.876;2022-07-29T00:07:12;3.83;;;1.95;;
56399;SDS011;42298;53.638;9.876;2022-07-29T00:09:37;5.80;;;2.25;;
56399;SDS011;42298;53.638;9.876;2022-07-29T00:12:02;4.50;;;1.77;;
56399;SDS011;42298;53.638;9.876;2022-07-29T00:14:28;4.50;;;2.03;;
56399;SDS011;42298;53.638;9.876;2022-07-29T00:16:54;4.25;;;1.67;;
56399;SDS011;42298;53.638;9.876;2022-07-29T00:19:20;4.38;;;2.00;;
56399;SDS011;42298;53.638;9.876;2022-07-29T00:21:45;3.22;;;1.88;;
56399;SDS011;42298;53.638;9.876;2022-07-29T00:24:11;4.65;;;1.60;;
56399;SDS011;42298;53.638;9.876;2022-07-29T00:26:36;4.78;;;2.13;;
56399;SDS011;42298;53.638;9.876;2022-07-29T00:29:03;4.93;;;2.10;;
56399;SDS011;42298;53.638;9.876;2022-07-29T00:31:28;3.80;;;1.90;;
56399;SDS011;42298;53.638;9.876;2022-07-29T00:33:54;3.97;;;1.85;;
56399;SDS011;42298;53.638;9.876;2022-07-29T00:36:20;5.10;;;2.28;;
56399;SDS011;42298;53.638;9.876;2022-07-29T00:38:49;4.15;;;2.22;;
56399;SDS011;42298;53.638;9.876;2022-07-29T00:41:16;4.57;;;2.05;;
56399;SDS011;42298;53.638;9.876;2022-07-29T00:43:41;5.32;;;2.00;;
56399;SDS011;42298;53.638;9.876;2022-07-29T00:46:07;5.28;;;1.80;;
56399;SDS011;42298;53.638;9.876;2022-07-29T00:48:33;3.97;;;2.00;;
56399;SDS011;42298;53.638;9.876;2022-07-29T00:50:58;3.80;;;2.15;;
56399;SDS011;42298;53.638;9.876;2022-07-29T00:53:26;3.15;;;1.90;;
56399;SDS011;42298;53.638;9.876;2022-07-29T00:55:53;3.70;;;1.60;;
56399;SDS011;42298;53.638;9.876;2022-07-29T00:58:18;4.80;;;2.00;;
56399;SDS011;42298;53.638;9.876;2022-07-29T01:00:44;3.28;;;1.83;;
56399;SDS011;42298;53.638;9.876;2022-07-29T01:03:09;5.22;;;2.08;;
56399;SDS011;42298;53.638;9.876;2022-07-29T01:05:35;4.13;;;2.10;;
56399;SDS011;42298;53.638;9.876;2022-07-29T01:08:00;5.13;;;2.00;;
56399;SDS011;42298;53.638;9.876;2022-07-29T01:10:27;5.85;;;2.17;;
56399;SDS011;42298;53.638;9.876;2022-07-29T01:12:54;6.97;;;2.20;;
56399;SDS011;42298;53.638;9.876;2022-07-29T01:15:22;5.70;;;2.22;;
56399;SDS011;42298;53.638;9.876;2022-07-29T01:31:39;5.13;;;2.45;;
56399;SDS011;42298;53.638;9.876;2022-07-29T01:34:23;3.13;;;1.88;;
56399;SDS011;42298;53.638;9.876;2022-07-29T01:37:01;3.35;;;1.80;;
56399;SDS011;42298;53.638;9.876;2022-07-29T01:39:34;6.43;;;2.33;;
56399;SDS011;42298;53.638;9.876;2022-07-29T01:43:03;4.82;;;2.22;;
56399;SDS011;42298;53.638;9.876;2022-07-29T01:48:03;8.25;;;2.47;;
56399;SDS011;42298;53.638;9.876;2022-07-29T01:50:40;4.88;;;2.38;;
56399;SDS011;42298;53.638;9.876;2022-07-29T01:53:12;7.72;;;2.45;;
56399;SDS011;42298;53.638;9.876;2022-07-29T01:55:44;7.95;;;2.55;;
56399;SDS011;42298;53.638;9.876;2022-07-29T01:58:11;9.05;;;2.90;;
56399;SDS011;42298;53.638;9.876;2022-07-29T02:00:39;6.65;;;2.60;;
56399;SDS011;42298;53.638;9.876;2022-07-29T02:03:07;5.35;;;2.70;;
56399;SDS011;42298;53.638;9.876;2022-07-29T02:05:36;7.60;;;2.80;;
56399;SDS011;42298;53.638;9.876;2022-07-29T02:08:04;6.13;;;2.28;;
56399;SDS011;42298;53.638;9.876;2022-07-29T02:10:34;7.95;;;2.90;;
56399;SDS011;42298;53.638;9.876;2022-07-29T02:13:02;6.57;;;2.50;;
56399;SDS011;42298;53.638;9.876;2022-07-29T02:15:30;7.40;;;3.28;;
56399;SDS011;42298;53.638;9.876;2022-07-29T02:18:07;7.03;;;2.40;;
56399;SDS011;42298;53.638;9.876;2022-07-29T02:20:36;7.72;;;2.60;;
56399;SDS011;42298;53.638;9.876;2022-07-29T02:23:04;6.22;;;2.55;;
56399;SDS011;42298;53.638;9.876;2022-07-29T02:25:32;8.73;;;3.10;;
56399;SDS011;42298;53.638;9.876;2022-07-29T02:27:57;7.90;;;2.60;;
56399;SDS011;42298;53.638;9.876;2022-07-29T02:30:25;5.25;;;2.53;;
56399;SDS011;42298;53.638;9.876;2022-07-29T02:32:52;9.02;;;2.85;;
56399;SDS011;42298;53.638;9.876;2022-07-29T02:35:19;6.45;;;2.80;;
56399;SDS011;42298;53.638;9.876;2022-07-29T02:37:46;5.75;;;2.58;;
56399;SDS011;42298;53.638;9.876;2022-07-29T02:40:35;8.13;;;2.83;;
56399;SDS011;42298;53.638;9.876;2022-07-29T02:43:04;7.05;;;2.72;;
56399;SDS011;42298;53.638;9.876;2022-07-29T02:45:31;7.55;;;2.70;;
56399;SDS011;42298;53.638;9.876;2022-07-29T02:47:57;6.60;;;2.60;;
56399;SDS011;42298;53.638;9.876;2022-07-29T02:50:44;7.40;;;2.80;;
56399;SDS011;42298;53.638;9.876;2022-07-29T02:53:16;8.70;;;3.03;;
56399;SDS011;42298;53.638;9.876;2022-07-29T02:55:51;5.90;;;2.67;;
56399;SDS011;42298;53.638;9.876;2022-07-29T02:58:22;4.97;;;2.40;;
56399;SDS011;42298;53.638;9.876;2022-07-29T03:00:53;7.00;;;2.90;;
56399;SDS011;42298;53.638;9.876;2022-07-29T03:03:21;7.13;;;3.00;;
56399;SDS011;42298;53.638;9.876;2022-07-29T03:05:52;5.53;;;2.67;;
56399;SDS011;42298;53.638;9.876;2022-07-29T03:08:21;9.02;;;3.15;;
56399;SDS011;42298;53.638;9.876;2022-07-29T03:10:47;9.00;;;3.08;;
56399;SDS011;42298;53.638;9.876;2022-07-29T03:13:13;7.30;;;2.78;;
56399;SDS011;42298;53.638;9.876;2022-07-29T03:15:42;6.07;;;2.80;;
56399;SDS011;42298;53.638;9.876;2022-07-29T03:18:08;7.10;;;2.60;;
56399;SDS011;42298;53.638;9.876;2022-07-29T03:20:34;6.35;;;2.38;;
56399;SDS011;42298;53.638;9.876;2022-07-29T03:22:59;6.47;;;2.90;;
56399;SDS011;42298;53.638;9.876;2022-07-29T03:25:25;6.03;;;2.88;;
56399;SDS011;42298;53.638;9.876;2022-07-29T03:27:52;7.45;;;3.08;;
56399;SDS011;42298;53.638;9.876;2022-07-29T03:30:17;7.97;;;3.00;;
56399;SDS011;42298;53.638;9.876;2022-07-29T03:32:42;9.57;;;2.95;;
56399;SDS011;42298;53.638;9.876;2022-07-29T03:35:08;8.45;;;3.00;;
56399;SDS011;42298;53.638;9.876;2022-07-29T03:37:33;6.50;;;2.67;;
56399;SDS011;42298;53.638;9.876;2022-07-29T03:40:01;6.28;;;2.47;;
56399;SDS011;42298;53.638;9.876;2022-07-29T03:42:30;8.00;;;2.80;;
56399;SDS011;42298;53.638;9.876;2022-07-29T03:44:58;9.18;;;3.15;;
56399;SDS011;42298;53.638;9.876;2022-07-29T03:47:28;8.32;;;3.25;;
56399;SDS011;42298;53.638;9.876;2022-07-29T03:49:57;7.75;;;3.17;;
56399;SDS011;42298;53.638;9.876;2022-07-29T03:52:27;5.55;;;2.78;;
56399;SDS011;42298;53.638;9.876;2022-07-29T03:54:53;5.85;;;2.50;;
56399;SDS011;42298;53.638;9.876;2022-07-29T03:57:19;6.95;;;3.00;;
56399;SDS011;42298;53.638;9.876;2022-07-29T03:59:48;7.88;;;2.88;;
56399;SDS011;42298;53.638;9.876;2022-07-29T04:02:15;7.07;;;2.95;;
56399;SDS011;42298;53.638;9.876;2022-07-29T04:04:41;7.70;;;2.90;;
56399;SDS011;42298;53.638;9.876;2022-07-29T04:07:06;6.90;;;3.10;;
56399;SDS011;42298;53.638;9.876;2022-07-29T04:09:32;9.35;;;3.05;;
56399;SDS011;42298;53.638;9.876;2022-07-29T04:11:57;10.10;;;2.88;;
56399;SDS011;42298;53.638;9.876;2022-07-29T04:14:22;8.57;;;3.10;;
56399;SDS011;42298;53.638;9.876;2022-07-29T04:16:48;6.90;;;3.20;;
56399;SDS011;42298;53.638;9.876;2022-07-29T04:19:13;7.65;;;3.30;;
56399;SDS011;42298;53.638;9.876;2022-07-29T04:21:39;8.45;;;3.40;;
56399;SDS011;42298;53.638;9.876;2022-07-29T04:24:05;9.20;;;3.13;;
56399;SDS011;42298;53.638;9.876;2022-07-29T04:26:31;7.07;;;3.17;;
56399;SDS011;42298;53.638;9.876;2022-07-29T04:28:56;9.00;;;3.10;;
56399;SDS011;42298;53.638;9.876;2022-07-29T04:31:22;7.85;;;3.35;;
56399;SDS011;42298;53.638;9.876;2022-07-29T04:33:47;7.43;;;3.08;;
56399;SDS011;42298;53.638;9.876;2022-07-29T04:36:12;7.15;;;3.10;;
56399;SDS011;42298;53.638;9.876;2022-07-29T04:38:38;8.35;;;3.70;;
56399;SDS011;42298;53.638;9.876;2022-07-29T04:41:04;7.07;;;2.88;;
56399;SDS011;42298;53.638;9.876;2022-07-29T04:43:29;7.13;;;3.22;;
56399;SDS011;42298;53.638;9.876;2022-07-29T04:45:55;7.45;;;3.20;;
56399;SDS011;42298;53.638;9.876;2022-07-29T04:48:20;9.48;;;2.83;;
56399;SDS011;42298;53.638;9.876;2022-07-29T04:50:46;8.60;;;3.40;;
56399;SDS011;42298;53.638;9.876;2022-07-29T04:53:11;6.82;;;3.35;;
56399;SDS011;42298;53.638;9.876;2022-07-29T04:55:37;6.70;;;3.00;;
56399;SDS011;42298;53.638;9.876;2022-07-29T04:58:02;8.63;;;2.80;;
56399;SDS011;42298;53.638;9.876;2022-07-29T05:00:27;5.65;;;2.63;;
56399;SDS011;42298;53.638;9.876;2022-07-29T05:02:52;6.68;;;2.90;;
56399;SDS011;42298;53.638;9.876;2022-07-29T05:05:18;10.25;;;3.50;;
56399;SDS011;42298;53.638;9.876;2022-07-29T05:07:43;8.20;;;3.28;;
56399;SDS011;42298;53.638;9.876;2022-07-29T05:10:09;9.85;;;3.08;;
56399;SDS011;42298;53.638;9.876;2022-07-29T05:12:34;9.38;;;3.17;;
56399;SDS011;42298;53.638;9.876;2022-07-29T05:15:00;7.93;;;3.15;;
56399;SDS011;42298;53.638;9.876;2022-07-29T05:17:25;10.80;;;3.30;;
56399;SDS011;42298;53.638;9.876;2022-07-29T05:19:51;7.65;;;2.88;;
56399;SDS011;42298;53.638;9.876;2022-07-29T05:22:17;8.57;;;2.92;;
56399;SDS011;42298;53.638;9.876;2022-07-29T05:24:44;7.55;;;2.72;;
56399;SDS011;42298;53.638;9.876;2022-07-29T05:27:09;7.25;;;2.80;;
56399;SDS011;42298;53.638;9.876;2022-07-29T05:29:35;8.23;;;3.08;;
56399;SDS011;42298;53.638;9.876;2022-07-29T05:32:00;6.18;;;2.88;;
56399;SDS011;42298;53.638;9.876;2022-07-29T05:34:26;8.38;;;3.17;;
56399;SDS011;42298;53.638;9.876;2022-07-29T05:36:51;10.48;;;3.50;;
56399;SDS011;42298;53.638;9.876;2022-07-29T05:39:17;10.43;;;3.17;;
56399;SDS011;42298;53.638;9.876;2022-07-29T05:41:42;8.50;;;3.13;;
56399;SDS011;42298;53.638;9.876;2022-07-29T05:44:07;6.43;;;2.92;;
56399;SDS011;42298;53.638;9.876;2022-07-29T05:46:33;9.50;;;3.28;;
56399;SDS011;42298;53.638;9.876;2022-07-29T05:48:58;7.97;;;2.97;;
56399;SDS011;42298;53.638;9.876;2022-07-29T05:51:23;10.60;;;3.42;;
56399;SDS011;42298;53.638;9.876;2022-07-29T05:53:48;7.40;;;3.10;;
56399;SDS011;42298;53.638;9.876;2022-07-29T05:56:14;7.25;;;2.85;;
56399;SDS011;42298;53.638;9.876;2022-07-29T05:58:39;10.68;;;3.33;;
56399;SDS011;42298;53.638;9.876;2022-07-29T06:01:04;7.30;;;2.90;;
56399;SDS011;42298;53.638;9.876;2022-07-29T06:03:30;6.72;;;2.88;;
56399;SDS011;42298;53.638;9.876;2022-07-29T06:05:55;7.15;;;2.95;;
56399;SDS011;42298;53.638;9.876;2022-07-29T06:08:21;10.98;;;3.67;;
56399;SDS011;42298;53.638;9.876;2022-07-29T06:10:46;8.93;;;3.25;;
56399;SDS011;42298;53.638;9.876;2022-07-29T06:13:12;8.68;;;3.17;;
56399;SDS011;42298;53.638;9.876;2022-07-29T06:15:37;8.68;;;3.00;;
56399;SDS011;42298;53.638;9.876;2022-07-29T06:18:03;7.10;;;3.10;;
56399;SDS011;42298;53.638;9.876;2022-07-29T06:20:29;6.30;;;2.75;;
56399;SDS011;42298;53.638;9.876;2022-07-29T06:22:55;8.18;;;2.80;;
56399;SDS011;42298;53.638;9.876;2022-07-29T06:25:20;9.35;;;3.60;;
56399;SDS011;42298;53.638;9.876;2022-07-29T06:27:46;7.72;;;3.03;;
56399;SDS011;42298;53.638;9.876;2022-07-29T06:30:11;8.30;;;3.20;;
56399;SDS011;42298;53.638;9.876;2022-07-29T06:32:37;8.02;;;3.38;;
56399;SDS011;42298;53.638;9.876;2022-07-29T06:35:02;7.38;;;3.25;;
56399;SDS011;42298;53.638;9.876;2022-07-29T06:37:28;9.10;;;3.20;;
56399;SDS011;42298;53.638;9.876;2022-07-29T06:39:53;7.75;;;3.00;;
56399;SDS011;42298;53.638;9.876;2022-07-29T06:42:37;6.80;;;2.53;;
56399;SDS011;42298;53.638;9.876;2022-07-29T06:45:07;7.85;;;3.03;;
56399;SDS011;42298;53.638;9.876;2022-07-29T06:47:32;7.82;;;3.00;;
56399;SDS011;42298;53.638;9.876;2022-07-29T06:49:58;8.60;;;3.20;;
56399;SDS011;42298;53.638;9.876;2022-07-29T06:52:23;8.15;;;3.50;;
56399;SDS011;42298;53.638;9.876;2022-07-29T06:54:50;7.47;;;3.03;;
56399;SDS011;42298;53.638;9.876;2022-07-29T06:57:15;8.05;;;2.95;;
56399;SDS011;42298;53.638;9.876;2022-07-29T06:59:40;6.93;;;3.00;;
56399;SDS011;42298;53.638;9.876;2022-07-29T07:02:06;7.38;;;2.70;;
56399;SDS011;42298;53.638;9.876;2022-07-29T07:04:31;11.70;;;2.90;;
56399;SDS011;42298;53.638;9.876;2022-07-29T07:06:57;9.65;;;3.13;;
56399;SDS011;42298;53.638;9.876;2022-07-29T07:09:22;7.13;;;2.75;;
56399;SDS011;42298;53.638;9.876;2022-07-29T07:11:48;5.45;;;2.80;;
56399;SDS011;42298;53.638;9.876;2022-07-29T07:14:13;9.52;;;2.67;;
56399;SDS011;42298;53.638;9.876;2022-07-29T07:16:38;6.80;;;2.90;;
56399;SDS011;42298;53.638;9.876;2022-07-29T07:19:04;5.50;;;2.60;;
56399;SDS011;42298;53.638;9.876;2022-07-29T07:21:29;7.65;;;2.67;;
56399;SDS011;42298;53.638;9.876;2022-07-29T07:23:54;8.85;;;3.20;;
56399;SDS011;42298;53.638;9.876;2022-07-29T07:26:20;5.95;;;2.60;;
56399;SDS011;42298;53.638;9.876;2022-07-29T07:28:45;8.95;;;2.85;;
56399;SDS011;42298;53.638;9.876;2022-07-29T07:31:11;6.38;;;2.70;;
56399;SDS011;42298;53.638;9.876;2022-07-29T07:33:37;7.70;;;2.70;;
56399;SDS011;42298;53.638;9.876;2022-07-29T07:36:02;9.38;;;3.10;;
56399;SDS011;42298;53.638;9.876;2022-07-29T07:38:28;6.05;;;2.60;;
56399;SDS011;42298;53.638;9.876;2022-07-29T07:40:53;8.45;;;3.10;;
56399;SDS011;42298;53.638;9.876;2022-07-29T07:43:18;9.55;;;3.10;;
56399;SDS011;42298;53.638;9.876;2022-07-29T07:45:44;5.78;;;2.97;;
56399;SDS011;42298;53.638;9.876;2022-07-29T07:48:09;6.13;;;2.70;;
56399;SDS011;42298;53.638;9.876;2022-07-29T07:50:35;6.50;;;2.85;;
56399;SDS011;42298;53.638;9.876;2022-07-29T07:53:01;7.68;;;2.60;;
56399;SDS011;42298;53.638;9.876;2022-07-29T07:55:27;7.53;;;2.80;;
56399;SDS011;42298;53.638;9.876;2022-07-29T07:57:53;7.32;;;3.03;;
56399;SDS011;42298;53.638;9.876;2022-07-29T08:00:19;4.88;;;2.20;;
56399;SDS011;42298;53.638;9.876;2022-07-29T08:02:45;6.07;;;2.72;;
56399;SDS011;42298;53.638;9.876;2022-07-29T08:05:11;8.13;;;2.78;;
56399;SDS011;42298;53.638;9.876;2022-07-29T08:07:40;7.95;;;2.90;;
56399;SDS011;42298;53.638;9.876;2022-07-29T08:10:06;6.72;;;2.90;;
56399;SDS011;42298;53.638;9.876;2022-07-29T08:12:32;7.60;;;2.90;;
56399;SDS011;42298;53.638;9.876;2022-07-29T08:14:57;7.78;;;2.90;;
56399;SDS011;42298;53.638;9.876;2022-07-29T08:17:22;9.50;;;2.88;;
56399;SDS011;42298;53.638;9.876;2022-07-29T08:19:48;7.85;;;2.90;;
56399;SDS011;42298;53.638;9.876;2022-07-29T08:22:14;7.35;;;2.83;;
56399;SDS011;42298;53.638;9.876;2022-07-29T08:24:40;9.45;;;2.90;;
56399;SDS011;42298;53.638;9.876;2022-07-29T08:27:08;6.70;;;2.85;;
56399;SDS011;42298;53.638;9.876;2022-07-29T08:29:35;8.70;;;3.22;;
56399;SDS011;42298;53.638;9.876;2022-07-29T08:32:01;6.63;;;3.10;;
56399;SDS011;42298;53.638;9.876;2022-07-29T08:34:26;6.20;;;2.42;;
56399;SDS011;42298;53.638;9.876;2022-07-29T08:36:53;8.85;;;2.88;;
56399;SDS011;42298;53.638;9.876;2022-07-29T08:39:18;6.05;;;2.75;;
56399;SDS011;42298;53.638;9.876;2022-07-29T08:41:44;6.40;;;2.80;;
56399;SDS011;42298;53.638;9.876;2022-07-29T08:44:09;7.88;;;2.88;;
56399;SDS011;42298;53.638;9.876;2022-07-29T08:46:37;7.00;;;2.72;;
56399;SDS011;42298;53.638;9.876;2022-07-29T08:49:04;7.53;;;2.78;;
56399;SDS011;42298;53.638;9.876;2022-07-29T08:51:29;7.93;;;3.60;;
56399;SDS011;42298;53.638;9.876;2022-07-29T08:53:55;7.70;;;2.47;;
56399;SDS011;42298;53.638;9.876;2022-07-29T08:56:21;6.53;;;2.38;;
56399;SDS011;42298;53.638;9.876;2022-07-29T08:58:47;8.77;;;2.50;;
56399;SDS011;42298;53.638;9.876;2022-07-29T09:01:16;6.65;;;2.55;;
56399;SDS011;42298;53.638;9.876;2022-07-29T09:03:43;6.72;;;2.75;;
56399;SDS011;42298;53.638;9.876;2022-07-29T09:06:12;5.85;;;2.47;;
56399;SDS011;42298;53.638;9.876;2022-07-29T09:08:39;5.40;;;2.40;;
56399;SDS011;42298;53.638;9.876;2022-07-29T09:11:04;5.57;;;2.60;;
56399;SDS011;42298;53.638;9.876;2022-07-29T09:13:32;7.55;;;2.80;;
56399;SDS011;42298;53.638;9.876;2022-07-29T09:15:57;8.90;;;2.60;;
56399;SDS011;42298;53.638;9.876;2022-07-29T09:18:42;8.40;;;2.75;;
56399;SDS011;42298;53.638;9.876;2022-07-29T09:21:09;6.88;;;2.22;;
56399;SDS011;42298;53.638;9.876;2022-07-29T09:26:30;5.32;;;2.42;;
56399;SDS011;42298;53.638;9.876;2022-07-29T09:28:57;8.93;;;2.55;;
56399;SDS011;42298;53.638;9.876;2022-07-29T09:31:31;7.88;;;2.50;;
56399;SDS011;42298;53.638;9.876;2022-07-29T09:34:02;6.03;;;2.30;;
56399;SDS011;42298;53.638;9.876;2022-07-29T09:36:30;4.63;;;1.98;;
56399;SDS011;42298;53.638;9.876;2022-07-29T09:39:01;5.93;;;2.17;;
56399;SDS011;42298;53.638;9.876;2022-07-29T09:41:27;7.05;;;2.05;;
56399;SDS011;42298;53.638;9.876;2022-07-29T09:43:56;5.70;;;2.25;;
56399;SDS011;42298;53.638;9.876;2022-07-29T09:46:23;3.95;;;1.98;;
56399;SDS011;42298;53.638;9.876;2022-07-29T09:51:38;7.28;;;2.10;;
56399;SDS011;42298;53.638;9.876;2022-07-29T09:56:51;8.70;;;2.67;;
56399;SDS011;42298;53.638;9.876;2022-07-29T09:59:17;5.50;;;1.88;;
56399;SDS011;42298;53.638;9.876;2022-07-29T10:01:42;8.60;;;1.88;;
56399;SDS011;42298;53.638;9.876;2022-07-29T10:04:08;8.60;;;2.67;;
56399;SDS011;42298;53.638;9.876;2022-07-29T10:06:34;9.00;;;2.00;;
56399;SDS011;42298;53.638;9.876;2022-07-29T10:09:08;7.55;;;2.28;;
56399;SDS011;42298;53.638;9.876;2022-07-29T10:11:35;7.40;;;2.00;;
56399;SDS011;42298;53.638;9.876;2022-07-29T10:14:01;8.13;;;2.00;;
56399;SDS011;42298;53.638;9.876;2022-07-29T10:16:28;8.10;;;2.30;;
56399;SDS011;42298;53.638;9.876;2022-07-29T10:18:57;3.90;;;1.65;;
56399;SDS011;42298;53.638;9.876;2022-07-29T10:21:24;6.05;;;2.00;;
56399;SDS011;42298;53.638;9.876;2022-07-29T10:26:55;7.50;;;2.00;;
56399;SDS011;42298;53.638;9.876;2022-07-29T10:29:21;8.23;;;2.40;;
56399;SDS011;42298;53.638;9.876;2022-07-29T10:34:44;7.15;;;2.35;;
56399;SDS011;42298;53.638;9.876;2022-07-29T10:40:02;5.40;;;2.17;;
56399;SDS011;42298;53.638;9.876;2022-07-29T10:42:54;5.35;;;2.30;;
56399;SDS011;42298;53.638;9.876;2022-07-29T10:45:25;6.03;;;1.90;;
56399;SDS011;42298;53.638;9.876;2022-07-29T10:48:02;7.38;;;2.35;;
56399;SDS011;42298;53.638;9.876;2022-07-29T10:50:45;4.57;;;2.00;;
56399;SDS011;42298;53.638;9.876;2022-07-29T10:53:46;8.50;;;2.60;;
56399;SDS011;42298;53.638;9.876;2022-07-29T10:56:27;4.45;;;2.10;;
56399;SDS011;42298;53.638;9.876;2022-07-29T11:01:43;6.82;;;2.38;;
56399;SDS011;42298;53.638;9.876;2022-07-29T11:04:08;6.18;;;2.28;;
56399;SDS011;42298;53.638;9.876;2022-07-29T11:09:28;4.97;;;2.30;;
56399;SDS011;42298;53.638;9.876;2022-07-29T11:11:55;7.10;;;2.20;;
56399;SDS011;42298;53.638;9.876;2022-07-29T11:17:25;3.42;;;1.73;;
56399;SDS011;42298;53.638;9.876;2022-07-29T11:19:51;7.15;;;1.98;;
56399;SDS011;42298;53.638;9.876;2022-07-29T11:22:32;8.60;;;2.25;;
56399;SDS011;42298;53.638;9.876;2022-07-29T11:25:14;4.50;;;1.77;;
56399;SDS011;42298;53.638;9.876;2022-07-29T11:27:40;6.70;;;1.83;;
56399;SDS011;42298;53.638;9.876;2022-07-29T11:30:06;6.90;;;1.90;;
56399;SDS011;42298;53.638;9.876;2022-07-29T11:32:36;4.50;;;1.80;;
56399;SDS011;42298;53.638;9.876;2022-07-29T11:37:46;6.60;;;2.10;;
56399;SDS011;42298;53.638;9.876;2022-07-29T11:40:13;4.97;;;1.90;;
56399;SDS011;42298;53.638;9.876;2022-07-29T11:42:41;7.82;;;1.95;;
56399;SDS011;42298;53.638;9.876;2022-07-29T11:45:12;5.18;;;2.00;;
56399;SDS011;42298;53.638;9.876;2022-07-29T11:47:41;5.28;;;2.00;;
56399;SDS011;42298;53.638;9.876;2022-07-29T11:50:12;8.48;;;1.85;;
56399;SDS011;42298;53.638;9.876;2022-07-29T11:52:39;5.90;;;2.08;;
56399;SDS011;42298;53.638;9.876;2022-07-29T11:55:11;7.28;;;2.25;;
56399;SDS011;42298;53.638;9.876;2022-07-29T11:57:49;5.13;;;2.15;;
56399;SDS011;42298;53.638;9.876;2022-07-29T12:03:06;6.82;;;2.13;;
56399;SDS011;42298;53.638;9.876;2022-07-29T12:05:34;5.13;;;2.05;;
56399;SDS011;42298;53.638;9.876;2022-07-29T12:08:12;4.85;;;1.67;;
56399;SDS011;42298;53.638;9.876;2022-07-29T12:10:44;4.22;;;1.90;;
56399;SDS011;42298;53.638;9.876;2022-07-29T12:13:11;5.43;;;1.92;;
56399;SDS011;42298;53.638;9.876;2022-07-29T12:15:37;7.25;;;2.28;;
56399;SDS011;42298;53.638;9.876;2022-07-29T12:18:19;5.38;;;1.95;;
56399;SDS011;42298;53.638;9.876;2022-07-29T12:20:45;6.68;;;1.92;;
56399;SDS011;42298;53.638;9.876;2022-07-29T12:23:12;4.05;;;1.63;;
56399;SDS011;42298;53.638;9.876;2022-07-29T12:25:39;4.88;;;2.00;;
56399;SDS011;42298;53.638;9.876;2022-07-29T12:28:07;6.40;;;1.73;;
56399;SDS011;42298;53.638;9.876;2022-07-29T12:30:36;5.03;;;1.95;;
56399;SDS011;42298;53.638;9.876;2022-07-29T12:33:11;8.07;;;1.90;;
56399;SDS011;42298;53.638;9.876;2022-07-29T12:35:37;5.18;;;1.95;;
56399;SDS011;42298;53.638;9.876;2022-07-29T12:38:03;7.22;;;2.03;;
56399;SDS011;42298;53.638;9.876;2022-07-29T12:40:29;5.03;;;1.90;;
56399;SDS011;42298;53.638;9.876;2022-07-29T12:45:39;5.70;;;2.20;;
56399;SDS011;42298;53.638;9.876;2022-07-29T12:48:06;4.82;;;1.88;;
56399;SDS011;42298;53.638;9.876;2022-07-29T12:50:36;3.92;;;1.75;;
56399;SDS011;42298;53.638;9.876;2022-07-29T12:53:16;5.82;;;2.13;;
56399;SDS011;42298;53.638;9.876;2022-07-29T12:55:42;6.80;;;1.90;;
56399;SDS011;42298;53.638;9.876;2022-07-29T12:58:08;4.22;;;1.80;;
56399;SDS011;42298;53.638;9.876;2022-07-29T13:00:33;5.40;;;1.83;;
56399;SDS011;42298;53.638;9.876;2022-07-29T13:02:59;6.78;;;2.03;;
56399;SDS011;42298;53.638;9.876;2022-07-29T13:05:38;5.65;;;1.60;;
56399;SDS011;42298;53.638;9.876;2022-07-29T13:08:15;5.47;;;1.77;;
56399;SDS011;42298;53.638;9.876;2022-07-29T13:10:43;7.38;;;1.80;;
56399;SDS011;42298;53.638;9.876;2022-07-29T13:13:10;5.10;;;1.80;;
56399;SDS011;42298;53.638;9.876;2022-07-29T13:15:38;6.28;;;2.00;;
56399;SDS011;42298;53.638;9.876;2022-07-29T13:20:55;4.93;;;1.88;;
56399;SDS011;42298;53.638;9.876;2022-07-29T13:23:21;7.10;;;2.42;;
56399;SDS011;42298;53.638;9.876;2022-07-29T13:25:47;4.10;;;1.80;;
56399;SDS011;42298;53.638;9.876;2022-07-29T13:28:12;5.57;;;2.10;;
56399;SDS011;42298;53.638;9.876;2022-07-29T13:30:39;8.13;;;2.30;;
56399;SDS011;42298;53.638;9.876;2022-07-29T13:33:05;5.88;;;2.10;;
56399;SDS011;42298;53.638;9.876;2022-07-29T13:35:31;6.28;;;2.22;;
56399;SDS011;42298;53.638;9.876;2022-07-29T13:37:56;6.47;;;2.63;;
56399;SDS011;42298;53.638;9.876;2022-07-29T13:40:22;8.30;;;2.63;;
56399;SDS011;42298;53.638;9.876;2022-07-29T13:42:47;5.45;;;2.00;;
56399;SDS011;42298;53.638;9.876;2022-07-29T13:45:12;8.65;;;2.50;;
56399;SDS011;42298;53.638;9.876;2022-07-29T13:47:38;5.30;;;2.42;;
56399;SDS011;42298;53.638;9.876;2022-07-29T13:50:03;6.57;;;2.42;;
56399;SDS011;42298;53.638;9.876;2022-07-29T13:52:30;7.10;;;2.35;;
56399;SDS011;42298;53.638;9.876;2022-07-29T13:54:55;7.93;;;2.80;;
56399;SDS011;42298;53.638;9.876;2022-07-29T13:57:21;9.57;;;2.42;;
56399;SDS011;42298;53.638;9.876;2022-07-29T13:59:46;6.72;;;2.22;;
56399;SDS011;42298;53.638;9.876;2022-07-29T14:02:12;6.70;;;2.47;;
56399;SDS011;42298;53.638;9.876;2022-07-29T14:04:37;6.20;;;2.00;;
56399;SDS011;42298;53.638;9.876;2022-07-29T14:07:03;8.43;;;2.33;;
56399;SDS011;42298;53.638;9.876;2022-07-29T14:09:28;8.32;;;2.35;;
56399;SDS011;42298;53.638;9.876;2022-07-29T14:11:53;8.85;;;2.60;;
56399;SDS011;42298;53.638;9.876;2022-07-29T14:14:19;6.90;;;2.25;;
56399;SDS011;42298;53.638;9.876;2022-07-29T14:16:45;4.88;;;2.40;;
56399;SDS011;42298;53.638;9.876;2022-07-29T14:19:10;6.47;;;2.42;;
56399;SDS011;42298;53.638;9.876;2022-07-29T14:21:36;5.93;;;2.20;;
56399;SDS011;42298;53.638;9.876;2022-07-29T14:24:02;9.10;;;2.33;;
56399;SDS011;42298;53.638;9.876;2022-07-29T14:26:28;6.65;;;2.13;;
56399;SDS011;42298;53.638;9.876;2022-07-29T14:28:54;7.10;;;2.70;;
56399;SDS011;42298;53.638;9.876;2022-07-29T14:31:19;11.93;;;2.95;;
56399;SDS011;42298;53.638;9.876;2022-07-29T14:33:44;7.35;;;2.40;;
56399;SDS011;42298;53.638;9.876;2022-07-29T14:36:09;7.50;;;2.80;;
56399;SDS011;42298;53.638;9.876;2022-07-29T14:38:35;7.03;;;2.33;;
56399;SDS011;42298;53.638;9.876;2022-07-29T14:41:02;9.57;;;2.30;;
56399;SDS011;42298;53.638;9.876;2022-07-29T14:43:27;9.88;;;2.53;;
56399;SDS011;42298;53.638;9.876;2022-07-29T14:45:53;7.35;;;2.35;;
56399;SDS011;42298;53.638;9.876;2022-07-29T14:48:18;6.43;;;2.38;;
56399;SDS011;42298;53.638;9.876;2022-07-29T14:50:43;7.75;;;2.20;;
56399;SDS011;42298;53.638;9.876;2022-07-29T14:53:09;7.47;;;2.20;;
56399;SDS011;42298;53.638;9.876;2022-07-29T14:55:37;7.65;;;3.05;;
56399;SDS011;42298;53.638;9.876;2022-07-29T14:58:04;7.47;;;2.20;;
56399;SDS011;42298;53.638;9.876;2022-07-29T15:00:29;6.85;;;2.40;;
56399;SDS011;42298;53.638;9.876;2022-07-29T15:02:57;9.75;;;2.35;;
56399;SDS011;42298;53.638;9.876;2022-07-29T15:05:22;6.93;;;2.30;;
56399;SDS011;42298;53.638;9.876;2022-07-29T15:07:48;7.68;;;2.20;;
56399;SDS011;42298;53.638;9.876;2022-07-29T15:10:13;8.07;;;2.30;;
56399;SDS011;42298;53.638;9.876;2022-07-29T15:12:38;8.32;;;3.17;;
56399;SDS011;42298;53.638;9.876;2022-07-29T15:15:04;9.27;;;2.42;;
56399;SDS011;42298;53.638;9.876;2022-07-29T15:17:30;7.75;;;2.17;;
56399;SDS011;42298;53.638;9.876;2022-07-29T15:19:55;9.10;;;2.70;;
56399;SDS011;42298;53.638;9.876;2022-07-29T15:22:21;11.38;;;2.85;;
56399;SDS011;42298;53.638;9.876;2022-07-29T15:24:46;5.72;;;2.10;;
56399;SDS011;42298;53.638;9.876;2022-07-29T15:27:11;7.07;;;2.38;;
56399;SDS011;42298;53.638;9.876;2022-07-29T15:29:39;6.28;;;2.20;;
56399;SDS011;42298;53.638;9.876;2022-07-29T15:32:06;8.13;;;2.30;;
56399;SDS011;42298;53.638;9.876;2022-07-29T15:34:31;7.03;;;2.20;;
56399;SDS011;42298;53.638;9.876;2022-07-29T15:36:57;7.43;;;2.42;;
56399;SDS011;42298;53.638;9.876;2022-07-29T15:39:22;6.85;;;2.15;;
56399;SDS011;42298;53.638;9.876;2022-07-29T15:41:48;7.13;;;2.00;;
56399;SDS011;42298;53.638;9.876;2022-07-29T15:44:13;8.65;;;2.70;;